Pt. Reyes RCA field Weather observations

Data are for 10 minute period ending at time listed.
 Day   Time   Solar   Ave.   Ave.  Ave.  Vector    Max.   Stn.   Total 
  of    of     Rad.   Air    Rel.  Wind   Wind     Wind   Baro. Precip.
Year   Day            Temp.  Hum.  Speed  Dir.     Gust   Pres.        
2015   (PST)   W/m2    F      %     mph   deg.      mph    mb.    in.  
-----------------------------------------------------------------------
 207   17:30  288.0    62   74.9    18    307.8    23.8   1009.1  0.00  
 207   17:40  256.0    62   75.3    17    313.6    23.2   1009.1  0.00  
 207   17:50  227.0    62   75.0    17    313.0    25.1   1009.1  0.00  
 207   18:00  196.0    61   76.4    18    311.4    23.5   1009.1  0.00  
 207   18:10  170.0    61   77.6    17    315.4    22.6   1009.1  0.00  
 207   18:20  145.0    60   78.6    17    321.6    24.5   1009.5  0.00  
 207   18:30  113.0    60   78.9    19    315.6    25.4   1009.1  0.00  
 207   18:40   90.0    60   80.2    20    315.0    26.1   1009.1  0.00  
 207   18:50   64.0    60   81.0    21    313.3    26.1   1009.1  0.00  
 207   19:00   41.0    59   81.8    21    311.8    29.0   1009.1  0.00  
 207   19:10   24.0    59   82.9    19    314.8    25.6   1009.1  0.00  
 207   19:20   12.0    58   83.9    17    317.1    22.9   1009.5  0.00  
 207   19:30    5.0    58   84.2    17    330.1    26.3   1009.5  0.00  
 207   19:40    2.0    58   85.0    17    329.3    24.4   1009.5  0.00  
 207   19:50    0.0    58   85.8    18    325.3    24.2   1009.5  0.00  
 207   20:00    0.0    58   86.9    16    328.6    22.6   1009.5  0.00  
 207   20:10    0.0    58   88.0    14    338.0    20.9   1009.5  0.00  
 207   20:20    0.0    57   88.7    12    334.6    17.5   1009.8  0.00  
 207   20:30  999.0   999  999.0   999    999.0   999.0    999.0 999.00  
 207   20:40  999.0   999  999.0   999    999.0   999.0    999.0 999.00  
 207   20:50  999.0   999  999.0   999    999.0   999.0    999.0 999.00  
 207   21:00  999.0   999  999.0   999    999.0   999.0    999.0 999.00  
 207   21:10  999.0   999  999.0   999    999.0   999.0    999.0 999.00  
 207   21:20  999.0   999  999.0   999    999.0   999.0    999.0 999.00  
 207   21:30    0.0    56   90.5    12    345.4    15.6   1010.5  0.00  
 207   21:40    0.0    56   90.7    11    347.7    17.8   1010.5  0.00  
 207   21:50    0.0    56   90.8    10    356.5    20.2   1010.5  0.00  
 207   22:00    0.0    56   91.2    10    358.1    18.5   1010.5  0.00  
 207   22:10    0.0    56   91.5    10    357.0    15.0   1010.5  0.00  
 207   22:20  999.0   999  999.0   999    999.0   999.0    999.0 999.00  
 207   22:30    0.0    56   91.5    12    318.5    16.3   1010.2  0.00  
 207   22:40    0.0    56   90.9    12    323.5    18.4   1010.2  0.00  
 207   22:50    0.0    56   91.0     9    331.7    13.2   1010.2  0.00  
 207   23:00    0.0    55   91.8    10    324.3    13.3   1009.8  0.00  
 207   23:10    0.0    56   91.9    10    329.3    14.5   1009.8  0.00  
 207   23:20    0.0    55   91.9    10    342.6    14.7   1010.2  0.00  
 207   23:30    0.0    56   92.1    14    327.0    19.0   1009.8  0.00  
 207   23:40    0.0    56   91.6    14    326.5    19.2   1010.2  0.00  
 207   23:50    0.0    56   91.6    14    333.1    18.3   1010.2  0.00  
 208    0:00    0.0    56   91.8    18    303.9    23.9   1009.8  0.00  
 208    0:10    0.0    56   91.6    15    311.8    19.1   1009.5  0.00  
 208    0:20    0.0    56   92.0    14    321.9    22.0   1009.8  0.00  
 208    0:30    0.0    55   92.6    12    333.0    17.5   1009.8  0.00  
 208    0:40    0.0    55   93.0    12    330.5    16.5   1009.8  0.00  
 208    0:50    0.0    55   93.0    12    331.0    17.5   1009.5  0.00  
 208    1:00    0.0    55   93.3    13    316.5    17.3   1009.1  0.00  
 208    1:10    0.0    55   93.5    14    324.6    18.7   1009.1  0.00  
 208    1:20    0.0    55   93.4    10    346.7    15.2   1009.5  0.00  
 208    1:30    0.0    55   93.7    11    323.4    15.9   1009.1  0.00  
 208    1:40    0.0    55   93.6     9    348.2    13.8   1009.5  0.00  
 208    1:50    0.0    54   93.6     9    336.7    13.0   1009.5  0.00  
 208    2:00    0.0    54   93.5     7    333.1    10.1   1009.5  0.00  
 208    2:10    0.0    54   93.4     6    354.0     9.1   1009.5  0.00  
 208    2:20    0.0    53   93.6     6    329.8     8.3   1009.5  0.00  
 208    2:30    0.0    53   93.9     6    341.3     9.9   1009.5  0.00  
 208    2:40    0.0    53   94.0     4     17.6     5.9   1009.5  0.00  
 208    2:50    0.0    52   93.5     2    354.9     3.4   1009.5  0.00  
 208    3:00    0.0    51   93.7     2     13.3     3.0   1009.5  0.00  
 208    3:10    0.0    51   94.3     1    356.4     2.6   1009.5  0.00  
 208    3:20    0.0    52   95.0     2    306.2     3.1   1009.5  0.00  
 208    3:30    0.0    52   94.4     2     28.5     2.9   1009.1  0.00  
 208    3:40    0.0    50   94.4     1     66.1     3.4   1009.5  0.00  
 208    3:50    0.0    52   95.5     0     16.7     1.5   1009.5  0.00  
 208    4:00    0.0    52   95.4     2      0.8     2.0   1009.1  0.00  
 208    4:10    0.0    52   95.4     3    328.7     3.6   1009.1  0.00  
 208    4:20    0.0    53   95.5     4    299.7     5.6   1009.5  0.00  
 208    4:30    0.0    52   95.3     5    286.2     5.0   1009.5  0.00  
 208    4:40    0.0    54   95.1     6    289.2     6.6   1009.5  0.00  
 208    4:50    0.0    52   93.3     6    315.3     6.9   1009.5  0.00  
 208    5:00    1.0    50   94.6     5    318.0     5.6   1009.5  0.00  
 208    5:10    3.0    50   95.2     4    320.7     5.2   1009.5  0.00  
 208    5:20    6.0    51   95.8     3    349.4     3.8   1009.5  0.00  
 208    5:30   12.0    51   95.7     2      5.0     2.9   1009.8  0.00  
 208    5:40   33.0    51   96.0     1      0.6     2.0   1009.8  0.00  
 208    5:50   60.0    52   96.2     2      0.4     3.0   1009.8  0.00  
 208    6:00   90.0    52   96.2     1    352.0     2.5   1010.2  0.00  
 208    6:10  114.0    53   96.3     3    300.6     3.8   1010.2  0.00  
 208    6:20  127.0    55   96.3     4    302.7     5.3   1010.5  0.00  
 208    6:30  164.0    56   95.4     4    309.8     5.6   1010.5  0.00  
 208    6:40  193.0    56   93.1     5    314.0     6.5   1010.2  0.00  
 208    6:50  222.0    57   89.1     5    308.5     7.1   1010.5  0.00  
 208    7:00  252.0    58   86.1     5    293.5     7.3   1010.5  0.00  
 208    7:10  280.0    58   84.2     5    274.1     6.4   1010.5  0.00  
 208    7:20  310.0    59   83.4     3    272.8     5.2   1010.8  0.00  
 208    7:30  340.0    59   82.2     4    270.5     5.0   1010.8  0.00  
 208    7:40  369.0    59   82.0     3    252.4     4.7   1010.8  0.00  
 208    7:50  400.0    60   80.7     3    244.7     6.0   1010.8  0.00  
 208    8:00  429.0    60   80.6     4    249.3     6.2   1010.8  0.00  
 208    8:10  458.0    61   78.8     4    227.9     6.6   1010.8  0.00  
 208    8:20  487.0    62   76.7     5    219.7     7.5   1010.8  0.00  
 208    8:30  515.0    62   75.6     6    225.8     9.6   1011.2  0.00  
 208    8:40  540.0    63   74.8     8    180.9    10.2   1011.2  0.00  
 208    8:50  568.0    64   72.9     8    173.8    11.0   1011.2  0.00  
 208    9:00  594.0    65   68.4     8    169.7    11.0   1011.2  0.00  
 208    9:10  619.0    65   69.7     5    198.9     9.9   1011.2  0.00  
 208    9:20  645.0    66   68.6     7    175.1    10.5   1011.2  0.00  
 208    9:30  667.0    67   64.0     9    162.9    12.6   1011.2  0.00  
 208    9:40  689.0    68   62.2    10    172.3    13.7   1011.2  0.00  
 208    9:50  708.0    64   70.8     9    239.0    12.1   1011.5  0.00  
 208   10:00  727.0    63   74.4    10    244.9    12.9   1011.5  0.00  
 208   10:10  745.0    63   74.9     9    238.5    12.3   1011.5  0.00  
 208   10:20  762.0    63   74.1    10    246.3    12.3   1011.5  0.00  
 208   10:30  778.0    63   73.5     9    241.8    12.6   1011.9  0.00  
 208   10:40  792.0    64   73.1     9    243.8    12.1   1011.9  0.00  
 208   10:50  804.0    64   73.2    10    248.8    12.4   1011.9  0.00  
 208   11:00  816.0    63   74.8    10    247.3    12.1   1011.9  0.00  
 208   11:10  827.0    64   73.6     9    243.0    12.4   1011.5  0.00  
 208   11:20  837.0    63   74.0    10    254.8    13.3   1011.9  0.00  
 208   11:30  844.0    62   75.8    11    258.0    12.5   1011.9  0.00  
 208   11:40  851.0    62   75.7    10    261.4    12.7   1011.9  0.00  
 208   11:50  856.0    63   75.0     9    253.4    11.8   1011.5  0.00  
 208   12:00  840.0    63   74.0    10    251.5    12.6   1011.5  0.00  
 208   12:10  863.0    62   75.5    10    254.1    13.5   1011.5  0.00  
 208   12:20  864.0    62   76.0    11    261.5    13.1   1011.5  0.00  
 208   12:30  864.0    62   75.8    10    260.2    12.1   1011.5  0.00  
 208   12:40  863.0    62   75.1     9    260.6    11.5   1011.5  0.00  
 208   12:50  860.0    62   75.1     9    269.7    12.9   1011.5  0.00  
 208   13:00  855.0    62   75.4     8    274.6    11.5   1011.5  0.00  
 208   13:10  850.0    62   75.5     8    273.6    11.3   1011.5  0.00  
 208   13:20  842.0    62   76.2     8    273.9    10.9   1011.5  0.00  
 208   13:30  833.0    62   75.0     8    270.1    11.2   1011.5  0.00  
 208   13:40  823.0    62   76.2     9    276.1    12.5   1011.2  0.00  
 208   13:50  811.0    61   76.8    10    282.9    14.2   1011.2  0.00  
 208   14:00  798.0    61   76.9    11    288.1    14.4   1011.2  0.00  
 208   14:10  784.0    61   76.5    11    289.0    14.2   1011.2  0.00  
 208   14:20  767.0    61   78.7    11    286.7    13.8   1011.2  0.00  
 208   14:30  749.0    61   77.6    11    290.0    14.5   1011.2  0.00  
 208   14:40  731.0    62   76.9    11    291.8    14.7   1011.2  0.00  
 208   14:50  710.0    61   76.9    12    294.3    16.0   1011.2  0.00  
 208   15:00  690.0    62   76.7    11    297.3    13.7   1010.8  0.00  
 208   15:10  668.0    62   76.2    11    291.9    14.2   1010.8  0.00  
 208   15:20  645.0    62   76.0    10    292.0    14.3   1010.8  0.00  
 208   15:30  621.0    61   77.0    11    295.1    14.5   1010.8  0.00  
 208   15:40  597.0    62   76.3    11    291.8    15.0   1010.8  0.00  
 208   15:50  572.0    62   75.7    11    291.1    14.7   1010.5  0.00  
 208   16:00  546.0    62   76.0    10    292.1    14.1   1010.5  0.00  
 208   16:10  519.0    62   75.5    11    289.3    14.5   1010.5  0.00  
 208   16:20  492.0    62   75.0    11    288.3    15.1   1010.5  0.00  
 208   16:30  465.0    62   75.0    12    285.6    16.4   1010.2  0.00  
 208   16:40  436.0    62   74.6    11    288.2    14.2   1010.2  0.00  
 208   16:50  407.0    62   74.9    11    290.1    15.3   1010.2  0.00  
 208   17:00  377.0    61   75.8    11    286.1    15.3   1010.2  0.00  
 208   17:10  348.0    61   76.0    11    291.6    13.8   1010.2  0.00  
 208   17:20  317.0    61   77.0    11    290.4    14.3   1009.8  0.00  

Return to Pt. Reyes graphs page.


Western Regional Climate Center,wrcc@dri.edu